sensor_id;sensor_type;location;lat;lon;timestamp;pressure;altitude;pressure_sealevel;temperature;humidity
49813;BME280;35706;52.100;5.056;2023-04-27T00:00:40;102072.47;;;7.87;70.43
49813;BME280;35706;52.100;5.056;2023-04-27T00:01:41;102076.88;;;7.86;70.74
49813;BME280;35706;52.100;5.056;2023-04-27T00:02:41;102074.59;;;7.80;71.36
49813;BME280;35706;52.100;5.056;2023-04-27T00:03:41;102081.19;;;7.87;71.29
49813;BME280;35706;52.100;5.056;2023-04-27T00:04:42;102078.56;;;7.87;71.05
49813;BME280;35706;52.100;5.056;2023-04-27T00:05:43;102074.94;;;7.74;70.61
49813;BME280;35706;52.100;5.056;2023-04-27T00:06:43;102079.84;;;7.80;70.67
49813;BME280;35706;52.100;5.056;2023-04-27T00:07:44;102080.09;;;7.75;70.29
49813;BME280;35706;52.100;5.056;2023-04-27T00:08:44;102079.44;;;7.72;69.83
49813;BME280;35706;52.100;5.056;2023-04-27T00:09:44;102073.84;;;7.78;70.11
49813;BME280;35706;52.100;5.056;2023-04-27T00:10:45;102074.88;;;7.75;70.59
49813;BME280;35706;52.100;5.056;2023-04-27T00:11:45;102074.78;;;7.77;70.47
49813;BME280;35706;52.100;5.056;2023-04-27T00:12:46;102078.31;;;7.76;70.13
49813;BME280;35706;52.100;5.056;2023-04-27T00:13:46;102080.59;;;7.82;70.15
49813;BME280;35706;52.100;5.056;2023-04-27T00:14:47;102073.06;;;7.92;69.82
49813;BME280;35706;52.100;5.056;2023-04-27T00:15:47;102075.84;;;7.89;69.90
49813;BME280;35706;52.100;5.056;2023-04-27T00:16:48;102067.50;;;7.82;69.86
49813;BME280;35706;52.100;5.056;2023-04-27T00:17:48;102065.84;;;7.81;69.59
49813;BME280;35706;52.100;5.056;2023-04-27T00:18:48;102066.34;;;7.72;69.77
49813;BME280;35706;52.100;5.056;2023-04-27T00:19:49;102064.13;;;7.80;70.14
49813;BME280;35706;52.100;5.056;2023-04-27T00:20:49;102068.25;;;7.84;70.48
49813;BME280;35706;52.100;5.056;2023-04-27T00:21:49;102067.84;;;7.76;70.64
49813;BME280;35706;52.100;5.056;2023-04-27T00:22:50;102064.41;;;7.75;70.00
49813;BME280;35706;52.100;5.056;2023-04-27T00:23:50;102063.84;;;7.70;70.13
49813;BME280;35706;52.100;5.056;2023-04-27T00:24:50;102066.94;;;7.61;70.15
49813;BME280;35706;52.100;5.056;2023-04-27T00:25:51;102065.59;;;7.70;70.18
49813;BME280;35706;52.100;5.056;2023-04-27T00:26:51;102061.84;;;7.74;70.11
49813;BME280;35706;52.100;5.056;2023-04-27T00:27:51;102066.44;;;7.70;70.31
49813;BME280;35706;52.100;5.056;2023-04-27T00:28:52;102069.16;;;7.69;70.18
49813;BME280;35706;52.100;5.056;2023-04-27T00:29:52;102069.63;;;7.75;69.78
49813;BME280;35706;52.100;5.056;2023-04-27T00:30:52;102066.06;;;7.77;69.73
49813;BME280;35706;52.100;5.056;2023-04-27T00:31:55;102063.38;;;7.78;69.52
49813;BME280;35706;52.100;5.056;2023-04-27T00:32:55;102064.13;;;7.80;69.33
49813;BME280;35706;52.100;5.056;2023-04-27T00:33:55;102060.94;;;7.75;69.11
49813;BME280;35706;52.100;5.056;2023-04-27T00:34:56;102068.34;;;7.83;69.24
49813;BME280;35706;52.100;5.056;2023-04-27T00:36:00;102072.94;;;7.79;69.25
49813;BME280;35706;52.100;5.056;2023-04-27T00:37:00;102068.44;;;7.81;69.07
49813;BME280;35706;52.100;5.056;2023-04-27T00:38:01;102068.44;;;7.81;69.11
49813;BME280;35706;52.100;5.056;2023-04-27T00:39:02;102070.47;;;7.76;69.47
49813;BME280;35706;52.100;5.056;2023-04-27T00:40:04;102070.53;;;7.74;69.75
49813;BME280;35706;52.100;5.056;2023-04-27T00:41:07;102068.59;;;7.78;69.93
49813;BME280;35706;52.100;5.056;2023-04-27T00:42:07;102065.91;;;7.80;69.80
49813;BME280;35706;52.100;5.056;2023-04-27T00:43:12;102074.38;;;7.69;69.80
49813;BME280;35706;52.100;5.056;2023-04-27T00:44:12;102067.78;;;7.62;70.11
49813;BME280;35706;52.100;5.056;2023-04-27T00:45:12;102066.94;;;7.61;69.70
49813;BME280;35706;52.100;5.056;2023-04-27T00:46:14;102069.06;;;7.70;69.57
49813;BME280;35706;52.100;5.056;2023-04-27T00:47:15;102067.63;;;7.65;69.52
49813;BME280;35706;52.100;5.056;2023-04-27T00:48:16;102071.84;;;7.67;69.83
49813;BME280;35706;52.100;5.056;2023-04-27T00:49:17;102068.66;;;7.62;70.13
49813;BME280;35706;52.100;5.056;2023-04-27T00:50:26;102063.22;;;7.65;70.38
49813;BME280;35706;52.100;5.056;2023-04-27T00:51:27;102062.47;;;7.63;70.75
49813;BME280;35706;52.100;5.056;2023-04-27T00:52:29;102060.28;;;7.71;70.43
49813;BME280;35706;52.100;5.056;2023-04-27T00:53:30;102050.75;;;7.70;70.01
49813;BME280;35706;52.100;5.056;2023-04-27T00:54:32;102056.13;;;7.67;70.51
49813;BME280;35706;52.100;5.056;2023-04-27T00:55:33;102053.19;;;7.58;70.34
49813;BME280;35706;52.100;5.056;2023-04-27T00:56:33;102050.19;;;7.49;70.08
49813;BME280;35706;52.100;5.056;2023-04-27T00:57:34;102054.41;;;7.52;70.45
49813;BME280;35706;52.100;5.056;2023-04-27T00:58:34;102055.56;;;7.62;70.17
49813;BME280;35706;52.100;5.056;2023-04-27T00:59:35;102054.63;;;7.63;69.70
49813;BME280;35706;52.100;5.056;2023-04-27T01:00:35;102058.94;;;7.64;69.93
49813;BME280;35706;52.100;5.056;2023-04-27T01:01:36;102053.53;;;7.67;70.02
49813;BME280;35706;52.100;5.056;2023-04-27T01:02:36;102059.38;;;7.57;69.21
49813;BME280;35706;52.100;5.056;2023-04-27T01:03:36;102050.06;;;7.51;68.99
49813;BME280;35706;52.100;5.056;2023-04-27T01:04:37;102058.19;;;7.62;68.72
49813;BME280;35706;52.100;5.056;2023-04-27T01:05:38;102049.16;;;7.52;68.97
49813;BME280;35706;52.100;5.056;2023-04-27T01:06:38;102046.91;;;7.46;69.27
49813;BME280;35706;52.100;5.056;2023-04-27T01:07:39;102055.50;;;7.48;68.73
49813;BME280;35706;52.100;5.056;2023-04-27T01:08:39;102045.19;;;7.61;68.47
49813;BME280;35706;52.100;5.056;2023-04-27T01:09:40;102049.22;;;7.66;68.48
49813;BME280;35706;52.100;5.056;2023-04-27T01:10:41;102048.34;;;7.51;67.94
49813;BME280;35706;52.100;5.056;2023-04-27T01:11:41;102058.53;;;7.56;67.48
49813;BME280;35706;52.100;5.056;2023-04-27T01:12:41;102053.91;;;7.45;67.14
49813;BME280;35706;52.100;5.056;2023-04-27T01:13:41;102061.75;;;7.45;66.88
49813;BME280;35706;52.100;5.056;2023-04-27T01:14:42;102064.09;;;7.50;67.15
49813;BME280;35706;52.100;5.056;2023-04-27T01:15:42;102059.91;;;7.47;67.57
49813;BME280;35706;52.100;5.056;2023-04-27T01:16:43;102061.75;;;7.45;67.82
49813;BME280;35706;52.100;5.056;2023-04-27T01:17:43;102056.53;;;7.45;68.12
49813;BME280;35706;52.100;5.056;2023-04-27T01:18:43;102062.06;;;7.55;67.80
49813;BME280;35706;52.100;5.056;2023-04-27T01:19:44;102060.81;;;7.62;67.92
49813;BME280;35706;52.100;5.056;2023-04-27T01:20:45;102069.16;;;7.69;67.51
49813;BME280;35706;52.100;5.056;2023-04-27T01:21:45;102067.56;;;7.66;67.53
49813;BME280;35706;52.100;5.056;2023-04-27T01:22:45;102068.47;;;7.65;67.54
49813;BME280;35706;52.100;5.056;2023-04-27T01:23:46;102063.91;;;7.53;67.77
49813;BME280;35706;52.100;5.056;2023-04-27T01:24:46;102068.06;;;7.57;67.41
49813;BME280;35706;52.100;5.056;2023-04-27T01:25:47;102061.16;;;7.56;67.52
49813;BME280;35706;52.100;5.056;2023-04-27T01:26:47;102055.41;;;7.49;67.49
49813;BME280;35706;52.100;5.056;2023-04-27T01:27:48;102064.88;;;7.52;67.44
49813;BME280;35706;52.100;5.056;2023-04-27T01:28:49;102061.41;;;7.51;67.87
49813;BME280;35706;52.100;5.056;2023-04-27T01:29:49;102055.66;;;7.45;68.41
49813;BME280;35706;52.100;5.056;2023-04-27T01:30:50;102057.69;;;7.40;68.03
49813;BME280;35706;52.100;5.056;2023-04-27T01:31:50;102058.03;;;7.33;67.93
49813;BME280;35706;52.100;5.056;2023-04-27T01:32:51;102049.16;;;7.52;67.69
49813;BME280;35706;52.100;5.056;2023-04-27T01:33:51;102057.09;;;7.50;67.76
49813;BME280;35706;52.100;5.056;2023-04-27T01:34:51;102053.78;;;7.47;67.64
49813;BME280;35706;52.100;5.056;2023-04-27T01:35:52;102040.56;;;7.50;67.43
49813;BME280;35706;52.100;5.056;2023-04-27T01:36:52;102041.13;;;7.55;67.07
49813;BME280;35706;52.100;5.056;2023-04-27T01:37:53;102040.56;;;7.50;67.31
49813;BME280;35706;52.100;5.056;2023-04-27T01:38:53;102042.56;;;7.45;67.31
49813;BME280;35706;52.100;5.056;2023-04-27T01:39:54;102045.94;;;7.47;66.91
49813;BME280;35706;52.100;5.056;2023-04-27T01:40:54;102046.72;;;7.49;66.97
49813;BME280;35706;52.100;5.056;2023-04-27T01:42:00;102046.22;;;7.42;67.16
49813;BME280;35706;52.100;5.056;2023-04-27T01:43:02;102041.31;;;7.52;66.96
49813;BME280;35706;52.100;5.056;2023-04-27T01:44:03;102041.66;;;7.46;67.30
49813;BME280;35706;52.100;5.056;2023-04-27T01:45:04;102040.38;;;7.53;67.28
49813;BME280;35706;52.100;5.056;2023-04-27T01:46:06;102043.00;;;7.53;67.71
49813;BME280;35706;52.100;5.056;2023-04-27T01:47:07;102045.13;;;7.46;67.32
49813;BME280;35706;52.100;5.056;2023-04-27T01:48:07;102046.72;;;7.49;67.81
49813;BME280;35706;52.100;5.056;2023-04-27T01:49:07;102042.69;;;7.43;67.89
49813;BME280;35706;52.100;5.056;2023-04-27T01:50:08;102045.78;;;7.50;67.56
49813;BME280;35706;52.100;5.056;2023-04-27T01:51:08;102043.00;;;7.53;67.96
49813;BME280;35706;52.100;5.056;2023-04-27T01:52:08;102035.25;;;7.51;67.89
49813;BME280;35706;52.100;5.056;2023-04-27T01:53:09;102038.28;;;7.44;67.75
49813;BME280;35706;52.100;5.056;2023-04-27T01:54:09;102041.75;;;7.44;67.83
49813;BME280;35706;52.100;5.056;2023-04-27T01:55:09;102034.72;;;7.45;67.61
49813;BME280;35706;52.100;5.056;2023-04-27T01:56:10;102042.69;;;7.43;67.53
49813;BME280;35706;52.100;5.056;2023-04-27T01:57:11;102040.47;;;7.36;67.45
49813;BME280;35706;52.100;5.056;2023-04-27T01:58:11;102046.75;;;7.33;67.80
49813;BME280;35706;52.100;5.056;2023-04-27T01:59:11;102040.91;;;7.28;67.78
49813;BME280;35706;52.100;5.056;2023-04-27T02:00:12;102046.88;;;7.30;67.57
49813;BME280;35706;52.100;5.056;2023-04-27T02:01:12;102035.94;;;7.39;67.77
49813;BME280;35706;52.100;5.056;2023-04-27T02:02:13;102036.19;;;7.34;67.39
49813;BME280;35706;52.100;5.056;2023-04-27T02:03:13;102040.31;;;7.39;67.41
49813;BME280;35706;52.100;5.056;2023-04-27T02:04:13;102042.53;;;7.30;67.47
49813;BME280;35706;52.100;5.056;2023-04-27T02:05:14;102046.06;;;7.29;67.73
49813;BME280;35706;52.100;5.056;2023-04-27T02:06:14;102047.75;;;7.30;67.65
49813;BME280;35706;52.100;5.056;2023-04-27T02:07:15;102040.13;;;7.26;67.75
49813;BME280;35706;52.100;5.056;2023-04-27T02:08:15;102044.38;;;7.28;68.01
49813;BME280;35706;52.100;5.056;2023-04-27T02:09:15;102041.50;;;7.33;67.66
49813;BME280;35706;52.100;5.056;2023-04-27T02:10:16;102044.97;;;7.33;67.42
49813;BME280;35706;52.100;5.056;2023-04-27T02:11:16;102045.97;;;7.31;67.42
49813;BME280;35706;52.100;5.056;2023-04-27T02:12:16;102036.38;;;7.16;67.62
49813;BME280;35706;52.100;5.056;2023-04-27T02:13:17;102032.41;;;7.24;67.86
49813;BME280;35706;52.100;5.056;2023-04-27T02:14:17;102041.44;;;7.19;67.64
49813;BME280;35706;52.100;5.056;2023-04-27T02:15:18;102037.63;;;7.24;67.42
49813;BME280;35706;52.100;5.056;2023-04-27T02:16:18;102035.19;;;7.21;67.33
49813;BME280;35706;52.100;5.056;2023-04-27T02:17:18;102036.63;;;7.27;67.02
49813;BME280;35706;52.100;5.056;2023-04-27T02:18:18;102038.28;;;7.28;66.76
49813;BME280;35706;52.100;5.056;2023-04-27T02:19:19;102041.66;;;7.30;67.49
49813;BME280;35706;52.100;5.056;2023-04-27T02:20:19;102042.59;;;7.29;66.90
49813;BME280;35706;52.100;5.056;2023-04-27T02:21:19;102043.47;;;7.13;67.36
49813;BME280;35706;52.100;5.056;2023-04-27T02:22:20;102040.00;;;7.29;67.36
49813;BME280;35706;52.100;5.056;2023-04-27T02:23:21;102038.06;;;7.32;66.94
49813;BME280;35706;52.100;5.056;2023-04-27T02:24:22;102032.72;;;7.34;66.88
49813;BME280;35706;52.100;5.056;2023-04-27T02:25:22;102038.22;;;7.29;66.61
49813;BME280;35706;52.100;5.056;2023-04-27T02:26:23;102033.75;;;7.31;66.81
49813;BME280;35706;52.100;5.056;2023-04-27T02:27:28;102031.31;;;7.28;67.03
49813;BME280;35706;52.100;5.056;2023-04-27T02:28:28;102028.00;;;7.25;67.02
49813;BME280;35706;52.100;5.056;2023-04-27T02:29:29;102025.91;;;7.16;67.27
49813;BME280;35706;52.100;5.056;2023-04-27T02:30:30;102028.69;;;7.28;67.10
49813;BME280;35706;52.100;5.056;2023-04-27T02:31:30;102031.81;;;7.35;66.99
49813;BME280;35706;52.100;5.056;2023-04-27T02:32:30;102025.63;;;7.36;66.90
49813;BME280;35706;52.100;5.056;2023-04-27T02:33:31;102024.13;;;7.32;67.05
49813;BME280;35706;52.100;5.056;2023-04-27T02:34:31;102025.63;;;7.36;67.28
49813;BME280;35706;52.100;5.056;2023-04-27T02:35:31;102023.44;;;7.44;66.92
49813;BME280;35706;52.100;5.056;2023-04-27T02:36:32;102020.31;;;7.38;66.82
49813;BME280;35706;52.100;5.056;2023-04-27T02:37:33;102016.38;;;7.30;67.12
49813;BME280;35706;52.100;5.056;2023-04-27T02:38:33;102020.84;;;7.28;67.27
49813;BME280;35706;52.100;5.056;2023-04-27T02:39:34;102025.97;;;7.30;67.32
49813;BME280;35706;52.100;5.056;2023-04-27T02:40:34;102021.41;;;7.33;67.24
49813;BME280;35706;52.100;5.056;2023-04-27T02:41:34;102016.34;;;7.46;67.00
49813;BME280;35706;52.100;5.056;2023-04-27T02:42:35;102022.38;;;7.32;67.03
49813;BME280;35706;52.100;5.056;2023-04-27T02:43:37;102024.28;;;7.29;67.26
49813;BME280;35706;52.100;5.056;2023-04-27T02:44:38;102020.84;;;7.28;67.62
49813;BME280;35706;52.100;5.056;2023-04-27T02:45:38;102019.16;;;7.27;67.82
49813;BME280;35706;52.100;5.056;2023-04-27T02:46:38;102013.66;;;7.32;67.99
49813;BME280;35706;52.100;5.056;2023-04-27T02:47:39;102009.53;;;7.28;67.93
49813;BME280;35706;52.100;5.056;2023-04-27T02:48:39;102016.19;;;7.33;68.19
49813;BME280;35706;52.100;5.056;2023-04-27T02:49:39;102012.06;;;7.29;68.42
49813;BME280;35706;52.100;5.056;2023-04-27T02:50:41;102022.59;;;7.28;68.47
49813;BME280;35706;52.100;5.056;2023-04-27T02:51:41;102018.22;;;7.28;68.55
49813;BME280;35706;52.100;5.056;2023-04-27T02:52:41;102022.09;;;7.21;68.61
49813;BME280;35706;52.100;5.056;2023-04-27T02:53:42;102016.22;;;7.18;69.11
49813;BME280;35706;52.100;5.056;2023-04-27T02:54:42;102016.88;;;7.21;69.30
49813;BME280;35706;52.100;5.056;2023-04-27T02:55:45;102020.44;;;7.20;69.26
49813;BME280;35706;52.100;5.056;2023-04-27T02:56:47;102012.75;;;7.01;69.19
49813;BME280;35706;52.100;5.056;2023-04-27T02:57:47;102018.81;;;7.02;69.93
49813;BME280;35706;52.100;5.056;2023-04-27T02:58:48;102021.84;;;6.94;70.11
49813;BME280;35706;52.100;5.056;2023-04-27T02:59:48;102027.69;;;6.99;69.62
49813;BME280;35706;52.100;5.056;2023-04-27T03:00:57;102017.31;;;6.98;69.78
49813;BME280;35706;52.100;5.056;2023-04-27T03:01:58;102018.22;;;7.12;69.99
49813;BME280;35706;52.100;5.056;2023-04-27T03:02:58;102020.16;;;7.09;69.78
49813;BME280;35706;52.100;5.056;2023-04-27T03:03:58;102023.72;;;7.08;69.69
49813;BME280;35706;52.100;5.056;2023-04-27T03:04:59;102024.28;;;7.13;69.72
49813;BME280;35706;52.100;5.056;2023-04-27T03:05:59;102028.09;;;7.07;70.08
49813;BME280;35706;52.100;5.056;2023-04-27T03:06:59;102032.72;;;7.02;69.64
49813;BME280;35706;52.100;5.056;2023-04-27T03:08:00;102032.72;;;7.02;69.33
49813;BME280;35706;52.100;5.056;2023-04-27T03:09:00;102025.00;;;7.01;69.03
49813;BME280;35706;52.100;5.056;2023-04-27T03:10:00;102032.56;;;6.89;68.69
49813;BME280;35706;52.100;5.056;2023-04-27T03:11:01;102036.63;;;6.95;68.39
49813;BME280;35706;52.100;5.056;2023-04-27T03:12:01;102034.50;;;7.02;67.98
49813;BME280;35706;52.100;5.056;2023-04-27T03:13:01;102028.69;;;6.97;67.77
49813;BME280;35706;52.100;5.056;2023-04-27T03:14:02;102027.25;;;6.91;68.31
49813;BME280;35706;52.100;5.056;2023-04-27T03:15:03;102035.94;;;6.91;68.46
49813;BME280;35706;52.100;5.056;2023-04-27T03:16:04;102030.88;;;6.88;68.41
49813;BME280;35706;52.100;5.056;2023-04-27T03:17:04;102036.09;;;6.88;68.15
49813;BME280;35706;52.100;5.056;2023-04-27T03:18:04;102034.69;;;6.99;67.81
49813;BME280;35706;52.100;5.056;2023-04-27T03:19:05;102033.06;;;6.96;67.57
49813;BME280;35706;52.100;5.056;2023-04-27T03:20:06;102031.97;;;7.00;67.55
49813;BME280;35706;52.100;5.056;2023-04-27T03:21:11;102034.25;;;6.90;67.46
49813;BME280;35706;52.100;5.056;2023-04-27T03:22:11;102030.56;;;6.95;67.61
49813;BME280;35706;52.100;5.056;2023-04-27T03:23:11;102026.41;;;6.90;67.98
49813;BME280;35706;52.100;5.056;2023-04-27T03:24:12;102027.06;;;6.94;67.87
49813;BME280;35706;52.100;5.056;2023-04-27T03:25:12;102023.03;;;6.88;67.79
49813;BME280;35706;52.100;5.056;2023-04-27T03:26:13;102028.00;;;6.93;67.67
49813;BME280;35706;52.100;5.056;2023-04-27T03:27:14;102025.66;;;6.88;67.48
49813;BME280;35706;52.100;5.056;2023-04-27T03:28:14;102028.84;;;6.93;67.27
49813;BME280;35706;52.100;5.056;2023-04-27T03:29:14;102022.72;;;6.95;67.05
49813;BME280;35706;52.100;5.056;2023-04-27T03:30:15;102029.34;;;6.84;67.05
49813;BME280;35706;52.100;5.056;2023-04-27T03:31:15;102033.75;;;6.84;67.31
49813;BME280;35706;52.100;5.056;2023-04-27T03:32:15;102033.75;;;6.84;67.17
49813;BME280;35706;52.100;5.056;2023-04-27T03:33:16;102031.91;;;6.86;67.40
49813;BME280;35706;52.100;5.056;2023-04-27T03:34:17;102032.88;;;6.83;67.68
49813;BME280;35706;52.100;5.056;2023-04-27T03:35:18;102024.19;;;6.83;67.58
49813;BME280;35706;52.100;5.056;2023-04-27T03:36:18;102031.59;;;6.75;67.58
49813;BME280;35706;52.100;5.056;2023-04-27T03:37:18;102031.34;;;6.79;67.42
49813;BME280;35706;52.100;5.056;2023-04-27T03:38:19;102032.28;;;6.78;67.42
49813;BME280;35706;52.100;5.056;2023-04-27T03:39:19;102025.53;;;6.74;67.65
49813;BME280;35706;52.100;5.056;2023-04-27T03:40:20;102029.69;;;6.78;67.46
49813;BME280;35706;52.100;5.056;2023-04-27T03:41:20;102032.22;;;6.80;67.29
49813;BME280;35706;52.100;5.056;2023-04-27T03:42:20;102033.13;;;6.79;67.43
49813;BME280;35706;52.100;5.056;2023-04-27T03:43:22;102030.94;;;6.71;67.65
49813;BME280;35706;52.100;5.056;2023-04-27T03:44:22;102033.56;;;6.71;67.89
49813;BME280;35706;52.100;5.056;2023-04-27T03:45:23;102037.78;;;6.73;67.61
49813;BME280;35706;52.100;5.056;2023-04-27T03:46:23;102025.16;;;6.82;67.47
49813;BME280;35706;52.100;5.056;2023-04-27T03:47:24;102029.34;;;6.84;67.42
49813;BME280;35706;52.100;5.056;2023-04-27T03:48:24;102034.41;;;6.87;67.42
49813;BME280;35706;52.100;5.056;2023-04-27T03:49:24;102029.19;;;6.87;67.86
49813;BME280;35706;52.100;5.056;2023-04-27T03:50:25;102034.16;;;6.92;68.03
49813;BME280;35706;52.100;5.056;2023-04-27T03:51:25;102027.84;;;6.96;67.85
49813;BME280;35706;52.100;5.056;2023-04-27T03:52:26;102033.38;;;6.90;67.68
49813;BME280;35706;52.100;5.056;2023-04-27T03:53:26;102034.72;;;6.81;67.51
49813;BME280;35706;52.100;5.056;2023-04-27T03:54:26;102023.13;;;6.87;67.74
49813;BME280;35706;52.100;5.056;2023-04-27T03:55:27;102022.78;;;6.93;67.49
49813;BME280;35706;52.100;5.056;2023-04-27T03:56:27;102024.06;;;6.86;67.74
49813;BME280;35706;52.100;5.056;2023-04-27T03:57:27;102026.66;;;6.86;67.89
49813;BME280;35706;52.100;5.056;2023-04-27T03:58:28;102025.81;;;6.85;67.95
49813;BME280;35706;52.100;5.056;2023-04-27T03:59:28;102031.03;;;6.85;67.76
49813;BME280;35706;52.100;5.056;2023-04-27T04:00:29;102030.25;;;6.83;67.82
49813;BME280;35706;52.100;5.056;2023-04-27T04:01:30;102036.75;;;6.76;67.63
49813;BME280;35706;52.100;5.056;2023-04-27T04:02:31;102039.31;;;6.78;67.79
49813;BME280;35706;52.100;5.056;2023-04-27T04:03:31;102035.41;;;6.69;68.19
49813;BME280;35706;52.100;5.056;2023-04-27T04:04:31;102041.22;;;6.74;68.17
49813;BME280;35706;52.100;5.056;2023-04-27T04:05:32;102042.81;;;6.77;67.78
49813;BME280;35706;52.100;5.056;2023-04-27T04:06:32;102040.81;;;6.82;67.56
49813;BME280;35706;52.100;5.056;2023-04-27T04:07:33;102042.00;;;6.76;67.15
49813;BME280;35706;52.100;5.056;2023-04-27T04:08:34;102047.22;;;6.76;67.10
49813;BME280;35706;52.100;5.056;2023-04-27T04:09:34;102046.13;;;6.80;67.12
49813;BME280;35706;52.100;5.056;2023-04-27T04:10:34;102038.34;;;6.79;67.19
49813;BME280;35706;52.100;5.056;2023-04-27T04:11:35;102042.06;;;6.75;67.77
49813;BME280;35706;52.100;5.056;2023-04-27T04:12:35;102041.22;;;6.74;68.16
49813;BME280;35706;52.100;5.056;2023-04-27T04:13:35;102044.66;;;6.75;68.36
49813;BME280;35706;52.100;5.056;2023-04-27T04:14:36;102051.75;;;6.72;67.98
49813;BME280;35706;52.100;5.056;2023-04-27T04:15:36;102045.88;;;6.69;68.12
49813;BME280;35706;52.100;5.056;2023-04-27T04:16:36;102050.41;;;6.65;68.67
49813;BME280;35706;52.100;5.056;2023-04-27T04:17:37;102048.22;;;6.73;68.32
49813;BME280;35706;52.100;5.056;2023-04-27T04:18:37;102056.22;;;6.70;68.32
49813;BME280;35706;52.100;5.056;2023-04-27T04:19:37;102051.31;;;6.64;68.23
49813;BME280;35706;52.100;5.056;2023-04-27T04:20:38;102046.63;;;6.71;68.17
49813;BME280;35706;52.100;5.056;2023-04-27T04:21:38;102048.88;;;6.77;68.57
49813;BME280;35706;52.100;5.056;2023-04-27T04:22:38;102045.44;;;6.77;68.58
49813;BME280;35706;52.100;5.056;2023-04-27T04:23:39;102057.28;;;6.84;68.59
49813;BME280;35706;52.100;5.056;2023-04-27T04:24:42;102050.41;;;6.81;68.06
49813;BME280;35706;52.100;5.056;2023-04-27T04:25:44;102057.91;;;6.71;68.03
49813;BME280;35706;52.100;5.056;2023-04-27T04:26:44;102054.94;;;6.62;67.90
49813;BME280;35706;52.100;5.056;2023-04-27T04:27:46;102060.59;;;6.70;67.76
49813;BME280;35706;52.100;5.056;2023-04-27T04:28:47;102060.59;;;6.70;67.65
49813;BME280;35706;52.100;5.056;2023-04-27T04:29:48;102058.00;;;6.70;67.68
49813;BME280;35706;52.100;5.056;2023-04-27T04:30:48;102073.41;;;6.75;67.64
49813;BME280;35706;52.100;5.056;2023-04-27T04:31:51;102060.78;;;6.83;67.79
49813;BME280;35706;52.100;5.056;2023-04-27T04:32:51;102066.19;;;6.80;67.49
49813;BME280;35706;52.100;5.056;2023-04-27T04:33:52;102073.34;;;6.76;67.40
49813;BME280;35706;52.100;5.056;2023-04-27T04:34:52;102066.72;;;6.86;67.11
49813;BME280;35706;52.100;5.056;2023-04-27T04:35:53;102071.41;;;6.80;67.73
49813;BME280;35706;52.100;5.056;2023-04-27T04:36:53;102063.72;;;6.77;68.21
49813;BME280;35706;52.100;5.056;2023-04-27T04:37:56;102056.97;;;6.72;68.82
49813;BME280;35706;52.100;5.056;2023-04-27T04:38:56;102060.22;;;6.78;68.89
49813;BME280;35706;52.100;5.056;2023-04-27T04:39:57;102062.69;;;6.63;69.07
49813;BME280;35706;52.100;5.056;2023-04-27T04:40:57;102062.00;;;6.60;69.18
49813;BME280;35706;52.100;5.056;2023-04-27T04:41:58;102064.88;;;6.55;68.89
49813;BME280;35706;52.100;5.056;2023-04-27T04:42:58;102070.00;;;6.57;69.03
49813;BME280;35706;52.100;5.056;2023-04-27T04:43:58;102066.97;;;6.64;68.55
49813;BME280;35706;52.100;5.056;2023-04-27T04:44:59;102066.47;;;6.58;69.29
49813;BME280;35706;52.100;5.056;2023-04-27T04:46:00;102063.41;;;6.49;70.00
49813;BME280;35706;52.100;5.056;2023-04-27T04:47:00;102068.63;;;6.49;70.49
49813;BME280;35706;52.100;5.056;2023-04-27T04:48:01;102065.88;;;6.52;70.36
49813;BME280;35706;52.100;5.056;2023-04-27T04:49:01;102068.31;;;6.56;69.65
49813;BME280;35706;52.100;5.056;2023-04-27T04:50:02;102064.69;;;6.58;68.69
49813;BME280;35706;52.100;5.056;2023-04-27T04:51:06;102066.50;;;6.40;68.88
49813;BME280;35706;52.100;5.056;2023-04-27T04:52:06;102065.72;;;6.38;68.61
49813;BME280;35706;52.100;5.056;2023-04-27T04:53:07;102071.72;;;6.40;68.38
49813;BME280;35706;52.100;5.056;2023-04-27T04:54:07;102066.34;;;6.43;68.51
49813;BME280;35706;52.100;5.056;2023-04-27T04:55:08;102070.47;;;6.47;68.10
49813;BME280;35706;52.100;5.056;2023-04-27T04:56:10;102066.50;;;6.40;68.53
49813;BME280;35706;52.100;5.056;2023-04-27T04:57:10;102065.66;;;6.40;68.18
49813;BME280;35706;52.100;5.056;2023-04-27T04:58:11;102068.88;;;6.45;68.01
49813;BME280;35706;52.100;5.056;2023-04-27T04:59:11;102065.56;;;6.41;68.11
49813;BME280;35706;52.100;5.056;2023-04-27T05:00:12;102067.19;;;6.44;68.10
49813;BME280;35706;52.100;5.056;2023-04-27T05:01:13;102066.44;;;6.42;67.97
49813;BME280;35706;52.100;5.056;2023-04-27T05:02:14;102064.09;;;6.53;67.74
49813;BME280;35706;52.100;5.056;2023-04-27T05:03:14;102072.31;;;6.63;67.25
49813;BME280;35706;52.100;5.056;2023-04-27T05:04:15;102071.06;;;6.70;66.78
49813;BME280;35706;52.100;5.056;2023-04-27T05:05:15;102066.00;;;6.67;66.74
49813;BME280;35706;52.100;5.056;2023-04-27T05:06:15;102074.78;;;6.48;67.38
49813;BME280;35706;52.100;5.056;2023-04-27T05:07:16;102075.31;;;6.55;67.23
49813;BME280;35706;52.100;5.056;2023-04-27T05:08:16;102067.72;;;6.50;67.41
49813;BME280;35706;52.100;5.056;2023-04-27T05:09:16;102076.72;;;6.45;67.55
49813;BME280;35706;52.100;5.056;2023-04-27T05:10:17;102071.91;;;6.37;67.82
49813;BME280;35706;52.100;5.056;2023-04-27T05:11:17;102071.53;;;6.61;67.23
49813;BME280;35706;52.100;5.056;2023-04-27T05:12:17;102069.06;;;6.58;67.23
49813;BME280;35706;52.100;5.056;2023-04-27T05:13:18;102076.06;;;6.57;67.00
49813;BME280;35706;52.100;5.056;2023-04-27T05:14:19;102071.94;;;6.53;67.41
49813;BME280;35706;52.100;5.056;2023-04-27T05:15:19;102079.72;;;6.70;66.89
49813;BME280;35706;52.100;5.056;2023-04-27T05:16:20;102079.91;;;6.83;66.39
49813;BME280;35706;52.100;5.056;2023-04-27T05:17:20;102079.38;;;6.61;66.78
49813;BME280;35706;52.100;5.056;2023-04-27T05:18:20;102083.66;;;6.62;66.96
49813;BME280;35706;52.100;5.056;2023-04-27T05:19:21;102091.75;;;6.57;67.29
49813;BME280;35706;52.100;5.056;2023-04-27T05:20:21;102087.75;;;6.67;66.99
49813;BME280;35706;52.100;5.056;2023-04-27T05:21:21;102094.06;;;6.79;66.69